Time;durP1;ratioP1;P1;durP2;ratioP2;P2;SDS_P1;SDS_P2;PMS_P1;PMS_P2;Temp;Humidity;BMP_temperature;BMP_pressure;BME280_temperature;BME280_humidity;BME280_pressure;Samples;Min_cycle;Max_cycle;Signal;HPM_P1;HPM_P2
2024/02/12 00:00:57;;;;;;;;;;;;;;;;;;5041774;28;19909;-91
2024/02/12 00:03:22;;;;;;;;;;;;;;;;;;5035327;28;19912;-90
2024/02/12 00:05:47;;;;;;;;;;;;;;;;;;5033747;28;20292;-90
2024/02/12 00:08:15;;;;;;;;;;;;;;;;;;5043470;28;19913;-89
2024/02/12 00:10:40;;;;;;;;;;;;;;;;;;5039550;28;20373;-89
2024/02/12 00:13:05;;;;;;;;;;;;;;;;;;5036375;28;19913;-90
2024/02/12 00:15:30;;;;;;;;;;;;;;;;;;5035863;28;20346;-90
2024/02/12 00:17:59;;;;;;;;;;;;;;;;;;5029660;28;19957;-90
2024/02/12 00:20:26;;;;;;;;;;;;;;;;;;5036025;28;20381;-90
2024/02/12 00:22:51;;;;;;;;;;;;;;;;;;5036326;28;19944;-91
2024/02/12 00:25:16;;;;;;;;;;;;;;;;;;5043507;28;20273;-86
2024/02/12 00:27:42;;;;;;;;;;;;;;;;;;5037753;28;20421;-89
2024/02/12 00:30:12;;;;;;;;;;;;;;;;;;5039426;28;19993;-89
2024/02/12 00:32:37;;;;;;;;;;;;;;;;;;5032857;28;19913;-91
2024/02/12 00:35:02;;;;;;;;;;;;;;;;;;5036049;28;19963;-90
2024/02/12 00:37:29;;;;;;;;;;;;;;;;;;5033290;28;19941;-89
2024/02/12 00:39:54;;;;;;;;;;;;;;;;;;5033009;28;19915;-89
2024/02/12 00:42:19;;;;;;;;;;;;;;;;;;5037698;28;19913;-89
2024/02/12 00:44:44;;;;;;;;;;;;;;;;;;5040976;28;19909;-89
2024/02/12 00:47:10;;;;;;;;;;;;;;;;;;5039389;28;20390;-90
2024/02/12 00:49:35;;;;;;;;;;;;;;;;;;5038709;28;20392;-88
2024/02/12 00:52:02;;;;;;;;;;;;;;;;;;5033967;28;19925;-90
2024/02/12 00:54:29;;;;;;;;;;;;;;;;;;5033549;28;19967;-88
2024/02/12 00:56:54;;;;;;;;;;;;;;;;;;5034444;28;19909;-91
2024/02/12 00:59:20;;;;;;;;;;;;;;;;;;5037328;28;20070;-91
2024/02/12 01:01:45;;;;;;;;;;;;;;;;;;5037346;28;20285;-91
2024/02/12 01:04:10;;;;;;;;;;;;;;;;;;5040979;28;19916;-89
2024/02/12 01:06:36;;;;;;;;;;;;;;;;;;5042736;28;19962;-88
2024/02/12 01:09:05;;;;;;;;;;;;;;;;;;5034528;28;19936;-90
2024/02/12 01:11:30;;;;;;;;;;;;;;;;;;5041346;28;19919;-88
2024/02/12 01:13:55;;;;;;;;;;;;;;;;;;5032449;28;20156;-90
2024/02/12 01:16:21;;;;;;;;;;;;;;;;;;5033767;28;19908;-90
2024/02/12 01:18:46;;;;;;;;;;;;;;;;;;5037130;28;19939;-89
2024/02/12 01:21:12;;;;;;;;;;;;;;;;;;5040937;28;20347;-87
2024/02/12 01:23:37;;;;;;;;;;;;;;;;;;5027311;28;20389;-87
2024/02/12 01:26:02;;;;;;;;;;;;;;;;;;5011817;28;20490;-88
2024/02/12 01:28:27;;;;;;;;;;;;;;;;;;5013170;28;19928;-89
2024/02/12 01:30:52;;;;;;;;;;;;;;;;;;5015006;28;19963;-88
2024/02/12 01:33:20;;;;;;;;;;;;;;;;;;5012903;28;19917;-87
2024/02/12 01:35:46;;;;;;;;;;;;;;;;;;5019009;28;19913;-88
2024/02/12 01:38:11;;;;;;;;;;;;;;;;;;5020142;28;19951;-90
2024/02/12 01:40:36;;;;;;;;;;;;;;;;;;5015701;28;19924;-89
2024/02/12 01:43:01;;;;;;;;;;;;;;;;;;5016609;28;19909;-90
2024/02/12 01:45:26;;;;;;;;;;;;;;;;;;5017673;28;19960;-89
2024/02/12 01:47:57;;;;;;;;;;;;;;;;;;5013963;28;19913;-90
2024/02/12 01:50:23;;;;;;;;;;;;;;;;;;4999511;28;19948;-90
2024/02/12 01:52:51;;;;;;;;;;;;;;;;;;5014818;28;19952;-89
2024/02/12 01:55:17;;;;;;;;;;;;;;;;;;5015135;28;19909;-87
2024/02/12 01:57:42;;;;;;;;;;;;;;;;;;5013303;28;19956;-90
2024/02/12 02:00:10;;;;;;;;;;;;;;;;;;5012854;28;20370;-89
2024/02/12 02:02:36;;;;;;;;;;;;;;;;;;5016362;28;19991;-90
2024/02/12 02:05:01;;;;;;;;;;;;;;;;;;5020632;28;19992;-90
2024/02/12 02:07:27;;;;;;;;;;;;;;;;;;5018821;28;19940;-89
2024/02/12 02:09:52;;;;;;;;;;;;;;;;;;5016599;28;19910;-91
2024/02/12 02:12:17;;;;;;;;;;;;;;;;;;5007995;28;19991;-89
2024/02/12 02:14:43;;;;;;;;;;;;;;;;;;5014542;28;20344;-90
2024/02/12 02:17:08;;;;;;;;;;;;;;;;;;4997827;28;19909;-91
2024/02/12 02:19:33;;;;;;;;;;;;;;;;;;5024354;28;19962;-88
2024/02/12 02:21:58;;;;;;;;;;;;;;;;;;5013022;28;20366;-90
2024/02/12 02:24:23;;;;;;;;;;;;;;;;;;5033201;28;20381;-90
2024/02/12 02:26:48;;;;;;;;;;;;;;;;;;5034503;28;20320;-89
2024/02/12 02:29:13;;;;;;;;;;;;;;;;;;5038207;28;19909;-89
2024/02/12 02:31:38;;;;;;;;;;;;;;;;;;5036169;28;19909;-88
2024/02/12 02:34:04;;;;;;;;;;;;;;;;;;5037965;28;19914;-89
2024/02/12 02:36:29;;;;;;;;;;;;;;;;;;5038200;28;19904;-85
2024/02/12 02:38:54;;;;;;;;;;;;;;;;;;5056547;28;19901;-86
2024/02/12 02:41:19;;;;;;;;;;;;;;;;;;5065864;28;19901;-86
2024/02/12 02:43:44;;;;;;;;;;;;;;;;;;5055781;28;19901;-84
2024/02/12 02:46:09;;;;;;;;;;;;;;;;;;5057853;28;19912;-84
2024/02/12 02:48:35;;;;;;;;;;;;;;;;;;5058062;28;20243;-89
2024/02/12 02:51:00;;;;;;;;;;;;;;;;;;5045966;28;19909;-90
2024/02/12 02:53:25;;;;;;;;;;;;;;;;;;5038886;28;19923;-89
2024/02/12 02:55:51;;;;;;;;;;;;;;;;;;5042023;28;20014;-90
2024/02/12 02:58:16;;;;;;;;;;;;;;;;;;5042072;28;20294;-86
2024/02/12 03:00:42;;;;;;;;;;;;;;;;;;5040291;28;19916;-90
2024/02/12 03:03:08;;;;;;;;;;;;;;;;;;5036414;28;19966;-90
2024/02/12 03:05:34;;;;;;;;;;;;;;;;;;5041021;28;19905;-85
2024/02/12 03:08:02;;;;;;;;;;;;;;;;;;5062747;28;19944;-84
2024/02/12 03:10:27;;;;;;;;;;;;;;;;;;5067443;28;19910;-84
2024/02/12 03:12:53;;;;;;;;;;;;;;;;;;5049504;28;19909;-89
2024/02/12 03:15:19;;;;;;;;;;;;;;;;;;5041566;28;19913;-89
2024/02/12 03:17:44;;;;;;;;;;;;;;;;;;5040922;28;19932;-89
2024/02/12 03:20:09;;;;;;;;;;;;;;;;;;5041116;28;19921;-88
2024/02/12 03:22:34;;;;;;;;;;;;;;;;;;5021474;28;19920;-87
2024/02/12 03:25:00;;;;;;;;;;;;;;;;;;5012491;28;20366;-88
2024/02/12 03:27:25;;;;;;;;;;;;;;;;;;5022946;28;19917;-89
2024/02/12 03:29:53;;;;;;;;;;;;;;;;;;5013629;28;20263;-89
2024/02/12 03:32:18;;;;;;;;;;;;;;;;;;5018391;28;20381;-90
2024/02/12 03:34:43;;;;;;;;;;;;;;;;;;5019629;28;20345;-88
2024/02/12 03:37:08;;;;;;;;;;;;;;;;;;5018680;28;19929;-88
2024/02/12 03:39:33;;;;;;;;;;;;;;;;;;5018983;28;19910;-89
2024/02/12 03:41:58;;;;;;;;;;;;;;;;;;5009748;28;19952;-89
2024/02/12 03:44:23;;;;;;;;;;;;;;;;;;5021021;28;19916;-90
2024/02/12 03:46:49;;;;;;;;;;;;;;;;;;5015142;28;19913;-90
2024/02/12 04:00:16;;;;;;;;;;;;;;;;;;5018131;28;19911;-90
2024/02/12 04:02:42;;;;;;;;;;;;;;;;;;5022619;28;19951;-89
2024/02/12 04:05:07;;;;;;;;;;;;;;;;;;5019893;28;20342;-90
2024/02/12 04:07:32;;;;;;;;;;;;;;;;;;5012775;28;19921;-88
2024/02/12 04:09:59;;;;;;;;;;;;;;;;;;5017786;28;19908;-89
2024/02/12 04:12:24;;;;;;;;;;;;;;;;;;4999575;28;19979;-89
2024/02/12 04:14:49;;;;;;;;;;;;;;;;;;5020707;28;19940;-87
2024/02/12 04:17:14;;;;;;;;;;;;;;;;;;5018026;28;20313;-80
2024/02/12 04:19:39;;;;;;;;;;;;;;;;;;5009224;28;19913;-81
2024/02/12 04:22:09;;;;;;;;;;;;;;;;;;5013021;28;19909;-80
2024/02/12 04:24:36;;;;;;;;;;;;;;;;;;5030899;28;19925;-81
2024/02/12 04:27:03;;;;;;;;;;;;;;;;;;5033184;28;19913;-81
2024/02/12 04:29:29;;;;;;;;;;;;;;;;;;5031787;28;20434;-81
2024/02/12 04:31:56;;;;;;;;;;;;;;;;;;5030197;28;19916;-81
2024/02/12 04:34:21;;;;;;;;;;;;;;;;;;5033891;28;20419;-80
2024/02/12 04:36:49;;;;;;;;;;;;;;;;;;5031989;28;19921;-81
2024/02/12 04:39:17;;;;;;;;;;;;;;;;;;5028784;28;20372;-81
2024/02/12 04:41:42;;;;;;;;;;;;;;;;;;5026796;28;20404;-81
2024/02/12 04:44:07;;;;;;;;;;;;;;;;;;5030307;28;19916;-81
2024/02/12 04:46:34;;;;;;;;;;;;;;;;;;5028764;28;19951;-81
2024/02/12 04:49:00;;;;;;;;;;;;;;;;;;5027567;28;19909;-81
2024/02/12 04:51:25;;;;;;;;;;;;;;;;;;5031411;28;19905;-81
2024/02/12 04:53:53;;;;;;;;;;;;;;;;;;5034817;28;19909;-81
2024/02/12 04:56:18;;;;;;;;;;;;;;;;;;5028096;28;20270;-80
2024/02/12 04:58:43;;;;;;;;;;;;;;;;;;5029943;28;20369;-81
2024/02/12 05:01:08;;;;;;;;;;;;;;;;;;5031702;28;20430;-81
2024/02/12 05:03:33;;;;;;;;;;;;;;;;;;5029159;28;19917;-81
2024/02/12 05:05:58;;;;;;;;;;;;;;;;;;5029407;28;19920;-81
2024/02/12 05:08:23;;;;;;;;;;;;;;;;;;5032562;28;19920;-81
2024/02/12 05:10:51;;;;;;;;;;;;;;;;;;5029807;28;19951;-81
2024/02/12 05:13:17;;;;;;;;;;;;;;;;;;5030814;28;20268;-82
2024/02/12 05:15:42;;;;;;;;;;;;;;;;;;5031866;28;20011;-81
2024/02/12 05:22:32;;;;;;;;;;;;;;;;;;5036452;28;19913;-81
2024/02/12 05:23:37;;;;;;;;;;;;;;;;;;5015049;28;19931;-82
2024/02/12 05:26:03;;;;;;;;;;;;;;;;;;5011657;28;20281;-81
2024/02/12 05:28:29;;;;;;;;;;;;;;;;;;5014554;28;19920;-81
2024/02/12 05:30:54;;;;;;;;;;;;;;;;;;5011300;28;19913;-81
2024/02/12 05:33:19;;;;;;;;;;;;;;;;;;5009726;28;19950;-81
2024/02/12 05:35:45;;;;;;;;;;;;;;;;;;5014676;28;19960;-81
2024/02/12 05:38:10;;;;;;;;;;;;;;;;;;5010114;28;19909;-81
2024/02/12 05:40:35;;;;;;;;;;;;;;;;;;5014386;28;20285;-81
2024/02/12 05:43:00;;;;;;;;;;;;;;;;;;5015725;28;20353;-81
2024/02/12 05:45:26;;;;;;;;;;;;;;;;;;5011618;28;20382;-81
2024/02/12 05:47:51;;;;;;;;;;;;;;;;;;5019970;28;19913;-81
2024/02/12 05:50:17;;;;;;;;;;;;;;;;;;5009796;28;19951;-81
2024/02/12 05:52:42;;;;;;;;;;;;;;;;;;5010700;28;20381;-81
2024/02/12 05:55:07;;;;;;;;;;;;;;;;;;5012868;28;20353;-82
2024/02/12 05:57:32;;;;;;;;;;;;;;;;;;5019273;28;20354;-81
2024/02/12 05:59:57;;;;;;;;;;;;;;;;;;5013393;28;19967;-82
2024/02/12 06:02:22;;;;;;;;;;;;;;;;;;5015157;28;19916;-81
2024/02/12 06:04:47;;;;;;;;;;;;;;;;;;5016707;28;19913;-81
2024/02/12 06:07:13;;;;;;;;;;;;;;;;;;5012890;28;19914;-80
2024/02/12 06:09:38;;;;;;;;;;;;;;;;;;5014247;28;19910;-81
2024/02/12 06:12:04;;;;;;;;;;;;;;;;;;5012762;28;19913;-82
2024/02/12 06:14:29;;;;;;;;;;;;;;;;;;5018706;28;19928;-81
2024/02/12 06:16:54;;;;;;;;;;;;;;;;;;5017838;28;19913;-81
2024/02/12 06:19:20;;;;;;;;;;;;;;;;;;5009250;28;19948;-81
2024/02/12 06:21:45;;;;;;;;;;;;;;;;;;5019985;28;19909;-81
2024/02/12 06:24:11;;;;;;;;;;;;;;;;;;5011060;28;19949;-81
2024/02/12 06:26:36;;;;;;;;;;;;;;;;;;5012157;28;19928;-82
2024/02/12 06:29:03;;;;;;;;;;;;;;;;;;5012100;28;20004;-82
2024/02/12 06:31:28;;;;;;;;;;;;;;;;;;5014321;28;19920;-82
2024/02/12 06:33:53;;;;;;;;;;;;;;;;;;5015055;28;19909;-82
2024/02/12 06:36:18;;;;;;;;;;;;;;;;;;5007692;28;19913;-91
2024/02/12 06:38:44;;;;;;;;;;;;;;;;;;5018039;28;19909;-91
2024/02/12 06:41:09;;;;;;;;;;;;;;;;;;5010923;28;20016;-92
2024/02/12 06:43:37;;;;;;;;;;;;;;;;;;5018603;28;19920;-91
2024/02/12 06:46:02;;;;;;;;;;;;;;;;;;5018068;28;19921;-91
2024/02/12 06:48:27;;;;;;;;;;;;;;;;;;5012419;28;20344;-90
2024/02/12 06:50:53;;;;;;;;;;;;;;;;;;4996769;28;19909;-90
2024/02/12 06:53:19;;;;;;;;;;;;;;;;;;5025291;28;19909;-90
2024/02/12 06:55:46;;;;;;;;;;;;;;;;;;5018146;28;20306;-91
2024/02/12 06:58:11;;;;;;;;;;;;;;;;;;5017787;28;19909;-90
2024/02/12 07:00:37;;;;;;;;;;;;;;;;;;5013284;28;19924;-88
2024/02/12 07:03:03;;;;;;;;;;;;;;;;;;5020675;28;19916;-91
2024/02/12 07:05:28;;;;;;;;;;;;;;;;;;5019287;28;20347;-91
2024/02/12 07:07:55;;;;;;;;;;;;;;;;;;5012248;28;20433;-91
2024/02/12 07:10:23;;;;;;;;;;;;;;;;;;5013401;28;19932;-89
2024/02/12 07:12:48;;;;;;;;;;;;;;;;;;5018698;28;19945;-92
2024/02/12 07:15:14;;;;;;;;;;;;;;;;;;5015705;28;19960;-90
2024/02/12 07:17:39;;;;;;;;;;;;;;;;;;5015586;28;19913;-91
2024/02/12 07:20:04;;;;;;;;;;;;;;;;;;5019756;28;19909;-91
2024/02/12 07:22:30;;;;;;;;;;;;;;;;;;5015466;28;19952;-91
2024/02/12 07:24:55;;;;;;;;;;;;;;;;;;5018897;28;19913;-90
2024/02/12 07:27:21;;;;;;;;;;;;;;;;;;5017844;28;19944;-92
2024/02/12 07:29:46;;;;;;;;;;;;;;;;;;5014413;28;19924;-91
2024/02/12 07:32:11;;;;;;;;;;;;;;;;;;5013554;28;19917;-91
2024/02/12 07:34:36;;;;;;;;;;;;;;;;;;5000691;28;19964;-88
2024/02/12 07:37:03;;;;;;;;;;;;;;;;;;5015898;28;19909;-87
2024/02/12 07:39:28;;;;;;;;;;;;;;;;;;5016064;28;19917;-91
2024/02/12 07:41:54;;;;;;;;;;;;;;;;;;5018311;28;19939;-90
2024/02/12 07:44:19;;;;;;;;;;;;;;;;;;5020083;28;19996;-91
2024/02/12 07:46:44;;;;;;;;;;;;;;;;;;5010993;28;19917;-88
2024/02/12 07:49:10;;;;;;;;;;;;;;;;;;5018323;28;20165;-89
2024/02/12 07:51:37;;;;;;;;;;;;;;;;;;5019467;28;19913;-90
2024/02/12 07:54:03;;;;;;;;;;;;;;;;;;5013862;28;19919;-90
2024/02/12 07:56:28;;;;;;;;;;;;;;;;;;5013854;28;19947;-82
2024/02/12 07:58:54;;;;;;;;;;;;;;;;;;5015346;28;20321;-81
2024/02/12 08:01:19;;;;;;;;;;;;;;;;;;5015240;28;19968;-81
2024/02/12 08:03:44;;;;;;;;;;;;;;;;;;5011687;28;19909;-81
2024/02/12 08:06:10;;;;;;;;;;;;;;;;;;5002092;28;19913;-81
2024/02/12 08:08:35;;;;;;;;;;;;;;;;;;5012343;28;20571;-81
2024/02/12 08:11:00;;;;;;;;;;;;;;;;;;5016543;28;19909;-81
2024/02/12 08:13:25;;;;;;;;;;;;;;;;;;5014458;28;19910;-81
2024/02/12 08:15:50;;;;;;;;;;;;;;;;;;5020325;28;20406;-81
2024/02/12 08:18:15;;;;;;;;;;;;;;;;;;5018995;28;20285;-81
2024/02/12 08:20:41;;;;;;;;;;;;;;;;;;5014531;28;19916;-81
2024/02/12 08:23:06;;;;;;;;;;;;;;;;;;5022691;28;20285;-81
2024/02/12 08:25:31;;;;;;;;;;;;;;;;;;5033882;28;19909;-81
2024/02/12 08:27:56;;;;;;;;;;;;;;;;;;5030767;28;19917;-82
2024/02/12 08:30:22;;;;;;;;;;;;;;;;;;5030924;28;19909;-81
2024/02/12 08:32:47;;;;;;;;;;;;;;;;;;5030239;28;19967;-82
2024/02/12 08:35:12;;;;;;;;;;;;;;;;;;5029406;28;20015;-81
2024/02/12 08:37:40;;;;;;;;;;;;;;;;;;5032120;28;19917;-81
2024/02/12 08:40:07;;;;;;;;;;;;;;;;;;5036996;28;19967;-81
2024/02/12 08:42:32;;;;;;;;;;;;;;;;;;5036721;28;19913;-81
2024/02/12 08:44:57;;;;;;;;;;;;;;;;;;5035173;28;19909;-81
2024/02/12 08:47:22;;;;;;;;;;;;;;;;;;5027528;28;20035;-81
2024/02/12 08:49:47;;;;;;;;;;;;;;;;;;5036445;28;20533;-81
2024/02/12 08:52:14;;;;;;;;;;;;;;;;;;5034568;28;19991;-82
2024/02/12 08:54:40;;;;;;;;;;;;;;;;;;5031089;28;19909;-81
2024/02/12 08:57:07;;;;;;;;;;;;;;;;;;5033959;28;20007;-81
2024/02/12 08:59:34;;;;;;;;;;;;;;;;;;5030880;28;19952;-81
2024/02/12 09:01:59;;;;;;;;;;;;;;;;;;5033479;28;19909;-81
2024/02/12 09:04:24;;;;;;;;;;;;;;;;;;5033561;28;20319;-81
2024/02/12 09:06:49;;;;;;;;;;;;;;;;;;5031007;28;19979;-81
2024/02/12 09:09:15;;;;;;;;;;;;;;;;;;5031392;28;20285;-81
2024/02/12 09:11:43;;;;;;;;;;;;;;;;;;5030561;28;19909;-81
2024/02/12 09:14:08;;;;;;;;;;;;;;;;;;5029354;28;19913;-81
2024/02/12 09:16:33;;;;;;;;;;;;;;;;;;5039195;28;20381;-81
2024/02/12 09:18:59;;;;;;;;;;;;;;;;;;5031048;28;19920;-81
2024/02/12 09:21:24;;;;;;;;;;;;;;;;;;5034120;28;19913;-81
2024/02/12 09:23:49;;;;;;;;;;;;;;;;;;5015657;28;19917;-81
2024/02/12 09:26:14;;;;;;;;;;;;;;;;;;5010594;28;19909;-81
2024/02/12 09:28:39;;;;;;;;;;;;;;;;;;5018110;28;20007;-81
2024/02/12 09:31:05;;;;;;;;;;;;;;;;;;5014969;28;19995;-81
2024/02/12 09:33:30;;;;;;;;;;;;;;;;;;5013680;28;19909;-81
2024/02/12 09:35:56;;;;;;;;;;;;;;;;;;5018759;28;20221;-81
2024/02/12 09:38:21;;;;;;;;;;;;;;;;;;5009314;28;19940;-81
2024/02/12 09:40:46;;;;;;;;;;;;;;;;;;5013737;28;21184;-81
2024/02/12 09:43:11;;;;;;;;;;;;;;;;;;5011387;28;19932;-81
2024/02/12 09:45:37;;;;;;;;;;;;;;;;;;5010907;28;19925;-81
2024/02/12 09:48:03;;;;;;;;;;;;;;;;;;5007615;28;20289;-81
2024/02/12 09:50:28;;;;;;;;;;;;;;;;;;5016172;28;20377;-82
2024/02/12 09:52:56;;;;;;;;;;;;;;;;;;5017184;28;19913;-82
2024/02/12 09:55:21;;;;;;;;;;;;;;;;;;5009698;28;20278;-81
2024/02/12 09:57:47;;;;;;;;;;;;;;;;;;5016135;28;19910;-83
2024/02/12 10:00:12;;;;;;;;;;;;;;;;;;5012766;28;19913;-81
2024/02/12 10:02:38;;;;;;;;;;;;;;;;;;5010484;28;19913;-81
2024/02/12 10:05:06;;;;;;;;;;;;;;;;;;5021868;28;19917;-82
2024/02/12 10:07:31;;;;;;;;;;;;;;;;;;5012087;28;20387;-81
2024/02/12 10:09:56;;;;;;;;;;;;;;;;;;5016183;28;20428;-82
2024/02/12 10:12:21;;;;;;;;;;;;;;;;;;5017422;28;19905;-82
2024/02/12 10:14:47;;;;;;;;;;;;;;;;;;5017511;28;23848;-81
2024/02/12 10:17:12;;;;;;;;;;;;;;;;;;5024877;28;19909;-90
2024/02/12 10:19:37;;;;;;;;;;;;;;;;;;5014939;28;20377;-90
2024/02/12 10:22:03;;;;;;;;;;;;;;;;;;5016274;28;19909;-91
2024/02/12 10:24:28;;;;;;;;;;;;;;;;;;5032913;28;20400;-90
2024/02/12 10:26:54;;;;;;;;;;;;;;;;;;5030220;28;19916;-92
2024/02/12 10:29:19;;;;;;;;;;;;;;;;;;5037276;28;20289;-89
2024/02/12 10:31:44;;;;;;;;;;;;;;;;;;5028812;28;19969;-91
2024/02/12 10:34:09;;;;;;;;;;;;;;;;;;5034170;28;19913;-91
2024/02/12 10:36:35;;;;;;;;;;;;;;;;;;5031083;28;20329;-90
2024/02/12 10:39:00;;;;;;;;;;;;;;;;;;5032480;28;19999;-90
2024/02/12 10:41:25;;;;;;;;;;;;;;;;;;5036579;28;19905;-91
2024/02/12 10:43:51;;;;;;;;;;;;;;;;;;5031955;28;19923;-89
2024/02/12 10:46:16;;;;;;;;;;;;;;;;;;5037315;28;19974;-90
2024/02/12 10:48:46;;;;;;;;;;;;;;;;;;5044363;28;19919;-91
2024/02/12 10:51:11;;;;;;;;;;;;;;;;;;5035229;28;19905;-89
2024/02/12 10:53:36;;;;;;;;;;;;;;;;;;5033061;28;20376;-87
2024/02/12 10:56:02;;;;;;;;;;;;;;;;;;5036522;28;20553;-90
2024/02/12 10:58:27;;;;;;;;;;;;;;;;;;5035310;28;19913;-91
2024/02/12 11:00:53;;;;;;;;;;;;;;;;;;5015646;28;19905;-90
2024/02/12 11:03:18;;;;;;;;;;;;;;;;;;5036076;28;19982;-91
2024/02/12 11:05:44;;;;;;;;;;;;;;;;;;5033155;28;19916;-90
2024/02/12 11:08:09;;;;;;;;;;;;;;;;;;5046544;28;19921;-91
2024/02/12 11:10:35;;;;;;;;;;;;;;;;;;5040821;28;19947;-89
2024/02/12 11:13:00;;;;;;;;;;;;;;;;;;5040784;28;19904;-90
2024/02/12 11:15:26;;;;;;;;;;;;;;;;;;5042895;28;19908;-90
2024/02/12 11:17:51;;;;;;;;;;;;;;;;;;5046184;28;20258;-91
2024/02/12 11:20:16;;;;;;;;;;;;;;;;;;5046858;28;20328;-88
2024/02/12 11:22:45;;;;;;;;;;;;;;;;;;5040746;28;19905;-91
2024/02/12 11:25:10;;;;;;;;;;;;;;;;;;5019373;28;20000;-82
2024/02/12 11:27:35;;;;;;;;;;;;;;;;;;5021776;28;20005;-82
2024/02/12 11:30:00;;;;;;;;;;;;;;;;;;5013184;28;19933;-80
2024/02/12 11:32:25;;;;;;;;;;;;;;;;;;5013576;28;19917;-81
2024/02/12 11:34:50;;;;;;;;;;;;;;;;;;5017366;28;19913;-81
2024/02/12 11:37:15;;;;;;;;;;;;;;;;;;5017280;28;19913;-82
2024/02/12 11:39:41;;;;;;;;;;;;;;;;;;5012861;28;19940;-82
2024/02/12 11:42:06;;;;;;;;;;;;;;;;;;5020829;28;20008;-82
2024/02/12 11:44:31;;;;;;;;;;;;;;;;;;5014820;28;19910;-82
2024/02/12 11:46:56;;;;;;;;;;;;;;;;;;5018487;28;19963;-82
2024/02/12 11:49:21;;;;;;;;;;;;;;;;;;5016912;28;20286;-82
2024/02/12 11:51:46;;;;;;;;;;;;;;;;;;5022081;28;21132;-81
2024/02/12 11:54:13;;;;;;;;;;;;;;;;;;5020134;28;19909;-82
2024/02/12 11:56:40;;;;;;;;;;;;;;;;;;5015962;28;19909;-82
2024/02/12 11:59:05;;;;;;;;;;;;;;;;;;5012496;28;19920;-81
2024/02/12 12:01:35;;;;;;;;;;;;;;;;;;5014589;28;19909;-81
2024/02/12 12:04:00;;;;;;;;;;;;;;;;;;5016461;28;19917;-81
2024/02/12 12:06:26;;;;;;;;;;;;;;;;;;5018408;28;19913;-80
2024/02/12 12:08:51;;;;;;;;;;;;;;;;;;5008241;28;19917;-80
2024/02/12 12:11:16;;;;;;;;;;;;;;;;;;5029504;28;19941;-82
2024/02/12 12:13:41;;;;;;;;;;;;;;;;;;5012811;28;19913;-81
2024/02/12 12:16:07;;;;;;;;;;;;;;;;;;5016228;28;20346;-80
2024/02/12 12:18:32;;;;;;;;;;;;;;;;;;5010787;28;20441;-82
2024/02/12 12:21:02;;;;;;;;;;;;;;;;;;5012662;28;19917;-82
2024/02/12 12:23:28;;;;;;;;;;;;;;;;;;5013906;28;20005;-82
2024/02/12 12:25:56;;;;;;;;;;;;;;;;;;5014311;28;20060;-82
2024/02/12 12:28:23;;;;;;;;;;;;;;;;;;5018786;28;19963;-82
2024/02/12 12:30:48;;;;;;;;;;;;;;;;;;5013043;28;19924;-81
2024/02/12 12:33:13;;;;;;;;;;;;;;;;;;5024267;28;19913;-81
2024/02/12 12:35:40;;;;;;;;;;;;;;;;;;5015892;28;19918;-90
2024/02/12 12:38:09;;;;;;;;;;;;;;;;;;5017613;28;20281;-90
2024/02/12 12:40:34;;;;;;;;;;;;;;;;;;5013230;28;19913;-91
2024/02/12 12:43:01;;;;;;;;;;;;;;;;;;5018788;28;19915;-89
2024/02/12 12:45:26;;;;;;;;;;;;;;;;;;5011937;28;20299;-90
2024/02/12 12:47:51;;;;;;;;;;;;;;;;;;5012492;28;19955;-89
2024/02/12 12:50:16;;;;;;;;;;;;;;;;;;5019754;28;20377;-88
2024/02/12 12:52:42;;;;;;;;;;;;;;;;;;5017046;28;19909;-89
2024/02/12 12:55:11;;;;;;;;;;;;;;;;;;5021136;28;20025;-86
2024/02/12 12:57:37;;;;;;;;;;;;;;;;;;5014444;28;19964;-90
2024/02/12 13:00:04;;;;;;;;;;;;;;;;;;5020053;28;20340;-90
2024/02/12 13:02:31;;;;;;;;;;;;;;;;;;5018092;28;20395;-90
2024/02/12 13:04:57;;;;;;;;;;;;;;;;;;5017634;28;19915;-91
2024/02/12 13:07:23;;;;;;;;;;;;;;;;;;5013260;28;19917;-89
2024/02/12 13:09:48;;;;;;;;;;;;;;;;;;5011914;28;19914;-90
2024/02/12 13:12:13;;;;;;;;;;;;;;;;;;5014367;28;20449;-91
2024/02/12 13:14:38;;;;;;;;;;;;;;;;;;5026880;28;19913;-91
2024/02/12 13:17:05;;;;;;;;;;;;;;;;;;5021446;28;20358;-91
2024/02/12 13:19:31;;;;;;;;;;;;;;;;;;5017695;28;19909;-91
2024/02/12 13:21:58;;;;;;;;;;;;;;;;;;5023311;28;19915;-86
2024/02/12 13:24:23;;;;;;;;;;;;;;;;;;5020577;28;19925;-90
2024/02/12 13:26:49;;;;;;;;;;;;;;;;;;5026080;28;19910;-91
2024/02/12 13:29:15;;;;;;;;;;;;;;;;;;5016142;28;19910;-90
2024/02/12 13:31:40;;;;;;;;;;;;;;;;;;5014959;28;19910;-89
2024/02/12 13:34:07;;;;;;;;;;;;;;;;;;5023361;28;19915;-91
2024/02/12 13:36:34;;;;;;;;;;;;;;;;;;5016041;28;19945;-91
2024/02/12 13:38:59;;;;;;;;;;;;;;;;;;5007157;28;19910;-89
2024/02/12 13:41:24;;;;;;;;;;;;;;;;;;5012717;28;20281;-90
2024/02/12 13:43:49;;;;;;;;;;;;;;;;;;5015567;28;19948;-91
2024/02/12 13:46:15;;;;;;;;;;;;;;;;;;5019477;28;19992;-91
2024/02/12 13:48:42;;;;;;;;;;;;;;;;;;5023446;28;20289;-89
2024/02/12 13:51:08;;;;;;;;;;;;;;;;;;5012711;28;19964;-88
2024/02/12 13:53:35;;;;;;;;;;;;;;;;;;5017094;28;20290;-89
2024/02/12 13:56:00;;;;;;;;;;;;;;;;;;5012229;28;20258;-92
2024/02/12 13:58:25;;;;;;;;;;;;;;;;;;5019586;28;19913;-91
2024/02/12 14:00:50;;;;;;;;;;;;;;;;;;5015761;28;19910;-89
2024/02/12 14:03:15;;;;;;;;;;;;;;;;;;5018469;28;19910;-91
2024/02/12 14:05:41;;;;;;;;;;;;;;;;;;5014341;28;19910;-90
2024/02/12 14:08:07;;;;;;;;;;;;;;;;;;5014695;28;19917;-83
2024/02/12 14:10:33;;;;;;;;;;;;;;;;;;5016676;28;19910;-91
2024/02/12 14:12:58;;;;;;;;;;;;;;;;;;5023528;28;19946;-89
2024/02/12 14:15:26;;;;;;;;;;;;;;;;;;5015590;28;20474;-90
2024/02/12 14:17:51;;;;;;;;;;;;;;;;;;5012293;28;19976;-91
2024/02/12 14:20:19;;;;;;;;;;;;;;;;;;5013508;28;19945;-88
2024/02/12 14:22:46;;;;;;;;;;;;;;;;;;5017930;28;19932;-88
2024/02/12 14:25:11;;;;;;;;;;;;;;;;;;5040714;28;19920;-89
2024/02/12 14:27:36;;;;;;;;;;;;;;;;;;5032678;28;19913;-89
2024/02/12 14:30:02;;;;;;;;;;;;;;;;;;5036005;28;19984;-89
2024/02/12 14:32:29;;;;;;;;;;;;;;;;;;5030795;28;19909;-87
2024/02/12 14:34:55;;;;;;;;;;;;;;;;;;5041881;28;20285;-87
2024/02/12 14:37:20;;;;;;;;;;;;;;;;;;5034434;28;19916;-88
2024/02/12 14:39:45;;;;;;;;;;;;;;;;;;5038589;28;19939;-89
2024/02/12 14:42:11;;;;;;;;;;;;;;;;;;5036798;28;19940;-89
2024/02/12 14:44:36;;;;;;;;;;;;;;;;;;5034761;28;19917;-88
2024/02/12 14:47:02;;;;;;;;;;;;;;;;;;5034142;28;19905;-89
2024/02/12 14:49:28;;;;;;;;;;;;;;;;;;5034275;28;19907;-88
2024/02/12 14:51:53;;;;;;;;;;;;;;;;;;5041335;28;19909;-91
2024/02/12 14:54:19;;;;;;;;;;;;;;;;;;5021749;28;19924;-88
2024/02/12 14:56:45;;;;;;;;;;;;;;;;;;5037576;28;20384;-91
2024/02/12 14:59:10;;;;;;;;;;;;;;;;;;5043055;28;19908;-91
2024/02/12 15:01:41;;;;;;;;;;;;;;;;;;5040563;28;19931;-91
2024/02/12 15:04:06;;;;;;;;;;;;;;;;;;5020755;28;19939;-91
2024/02/12 15:06:31;;;;;;;;;;;;;;;;;;5037766;28;19912;-90
2024/02/12 15:08:56;;;;;;;;;;;;;;;;;;5039230;28;19921;-90
2024/02/12 15:11:21;;;;;;;;;;;;;;;;;;5042574;28;20549;-92
2024/02/12 15:13:47;;;;;;;;;;;;;;;;;;5040851;28;20124;-87
2024/02/12 15:16:12;;;;;;;;;;;;;;;;;;5032104;28;19909;-91
2024/02/12 15:18:37;;;;;;;;;;;;;;;;;;5039038;28;19957;-90
2024/02/12 15:21:02;;;;;;;;;;;;;;;;;;5035671;28;19963;-92
2024/02/12 15:23:28;;;;;;;;;;;;;;;;;;5040194;28;19924;-91
2024/02/12 15:25:53;;;;;;;;;;;;;;;;;;5036909;28;20392;-92
2024/02/12 15:28:18;;;;;;;;;;;;;;;;;;5043622;28;19920;-91
2024/02/12 15:30:43;;;;;;;;;;;;;;;;;;5034307;28;19916;-92
2024/02/12 15:33:09;;;;;;;;;;;;;;;;;;5025502;28;19913;-92
2024/02/12 15:35:34;;;;;;;;;;;;;;;;;;5037342;28;19913;-92
2024/02/12 15:38:05;;;;;;;;;;;;;;;;;;5039753;28;19919;-90
2024/02/12 15:40:33;;;;;;;;;;;;;;;;;;5036407;28;19932;-92
2024/02/12 15:43:01;;;;;;;;;;;;;;;;;;5039495;28;19916;-90
2024/02/12 15:45:27;;;;;;;;;;;;;;;;;;5036448;28;19913;-89
2024/02/12 15:47:55;;;;;;;;;;;;;;;;;;5038440;28;19912;-91
2024/02/12 15:50:20;;;;;;;;;;;;;;;;;;5035642;28;19952;-91
2024/02/12 15:52:45;;;;;;;;;;;;;;;;;;5032048;28;19909;-93
2024/02/12 15:55:10;;;;;;;;;;;;;;;;;;5037393;28;20183;-90
2024/02/12 15:57:35;;;;;;;;;;;;;;;;;;5038619;28;20362;-93
2024/02/12 16:00:01;;;;;;;;;;;;;;;;;;5038481;28;19909;-92
2024/02/12 16:02:26;;;;;;;;;;;;;;;;;;5039437;28;20306;-92
2024/02/12 16:04:52;;;;;;;;;;;;;;;;;;5041229;28;20443;-92
2024/02/12 16:07:18;;;;;;;;;;;;;;;;;;5040457;28;19916;-90
2024/02/12 16:09:43;;;;;;;;;;;;;;;;;;5019016;28;19987;-86
2024/02/12 16:12:12;;;;;;;;;;;;;;;;;;5033317;28;19909;-87
2024/02/12 16:14:39;;;;;;;;;;;;;;;;;;5034425;28;20423;-88
2024/02/12 16:17:05;;;;;;;;;;;;;;;;;;5034266;28;19920;-87
2024/02/12 16:19:30;;;;;;;;;;;;;;;;;;5025450;28;19909;-89
2024/02/12 16:21:56;;;;;;;;;;;;;;;;;;5033256;28;20377;-87
2024/02/12 16:24:21;;;;;;;;;;;;;;;;;;5018378;28;20382;-87
2024/02/12 16:26:47;;;;;;;;;;;;;;;;;;5011017;28;19983;-89
2024/02/12 16:29:12;;;;;;;;;;;;;;;;;;5011613;28;19913;-88
2024/02/12 16:31:39;;;;;;;;;;;;;;;;;;5015926;28;19944;-87
2024/02/12 16:34:04;;;;;;;;;;;;;;;;;;5022435;28;19940;-87
2024/02/12 16:36:30;;;;;;;;;;;;;;;;;;5017013;28;19975;-89
2024/02/12 16:38:55;;;;;;;;;;;;;;;;;;5018912;28;19909;-90
2024/02/12 16:41:23;;;;;;;;;;;;;;;;;;5018016;28;19909;-92
2024/02/12 16:43:49;;;;;;;;;;;;;;;;;;5011310;28;20024;-91
2024/02/12 16:46:14;;;;;;;;;;;;;;;;;;5014543;28;19983;-89
2024/02/12 16:48:40;;;;;;;;;;;;;;;;;;5017140;28;19913;-90